Zawiercie, Poland
Current Conditions -  °F | °C
As of 1:30 PM on Friday 24 Oct 2014 (Local Time) from EPKT Reporting Station
Scattered Clouds Scattered Clouds  
Wind Chill: 30°   Ceiling: Unl
Heat Index: 37°   Visibility: 6mi
Dew Point: 34°   Wind: 10mph
Humidity: 87%   Direction: 60°ENE
Pressure: 30.27"   Gusts: NA
Location:  50.49°N, 19.42°E
Report Text: EPKT 241130Z 06009KT 020V080 9999 SCT011 03/01 Q1025
Loading
Personal Weather Stations






























Interactive Weather Map
Tropical Storm Tracking
New forecast layout! Learn more

10-Day Weather Forecast

Advertisements
Track Severe Weather on mobile